»·PEaware :: N74KW L52-67L

N74KW :: L52-67L

FLIGHT INFORMATION

Flight Status: Arrived
Operator: Privately registered:
United States
More flights under this callsign
Pilot: Charles C. (26995)
Aircraft: MCDONNELL-DOUGLAS SKYTRAIN C-47
(DC3)
More flights by this aircraft type
Origin: L52 Oceano Co
United States
Destination: 67L Mesquite
United States
More flights between these airports :: More routes between these airports
Route: +EHF MMM
File this flight plan on PilotEdge
Remarks:
Altitude:
(Current/Filed)
7,500ft
Speed:
(Current/Filed)
150kts
Departed: 18-Aug-20 07:33 AM
Arrived: 18-Aug-20 09:46 AM
Distance/Time
Traveled:
335nm/2:12
Distance/Time
To Go:
Arrived

Flight Plot

Page will automatically refresh every two minutes.

Flight plan parsing failed; only flown route is shown


Map Options




Map Legend


Flown Route
Filed Route
Departure Airport
Arrival Airport
Navaid (VOR, NDB)
Fix

Horizontal Profiles

Position Reports

Time Latitude Longitude Heading Altitude Ground
Speed
18-Aug-20 07:23 35.103552 -120.624283 214 19ft 0kts
18-Aug-20 07:24 35.103552 -120.624283 214 19ft 0kts
18-Aug-20 07:25 35.103552 -120.624283 214 19ft 0kts
18-Aug-20 07:26 35.103552 -120.624283 214 19ft 0kts
18-Aug-20 07:27 35.103552 -120.624283 214 19ft 0kts
18-Aug-20 07:28 35.103552 -120.624283 214 19ft 0kts
18-Aug-20 07:29 35.103552 -120.624283 214 19ft 0kts
18-Aug-20 07:30 35.103313 -120.625306 183 18ft 7kts
18-Aug-20 07:31 35.103004 -120.625047 121 18ft 0kts
18-Aug-20 07:32 35.102120 -120.623350 121 19ft 55kts
18-Aug-20 07:33 35.093478 -120.592845 61 625ft 112kts
18-Aug-20 07:34 35.110162 -120.559963 55 1269ft 116kts
18-Aug-20 07:35 35.126582 -120.523480 66 1830ft 123kts
18-Aug-20 07:36 35.145771 -120.489000 70 2416ft 125kts
18-Aug-20 07:37 35.154706 -120.447712 105 2925ft 129kts
18-Aug-20 07:38 35.157076 -120.406249 66 3572ft 126kts
18-Aug-20 07:39 35.169016 -120.366103 64 4202ft 126kts
18-Aug-20 07:40 35.179773 -120.326177 67 4858ft 121kts
18-Aug-20 07:41 35.189901 -120.286938 67 5442ft 121kts
18-Aug-20 07:42 35.201477 -120.241734 70 5489ft 156kts
18-Aug-20 07:43 35.214900 -120.189894 68 5485ft 160kts
18-Aug-20 07:44 35.227420 -120.139095 69 5490ft 155kts
18-Aug-20 07:45 35.239983 -120.089050 69 5490ft 151kts
18-Aug-20 07:46 35.252397 -120.039669 68 5605ft 153kts
18-Aug-20 07:47 35.264938 -119.989819 69 6012ft 152kts
18-Aug-20 07:48 35.277264 -119.940727 69 6478ft 147kts
18-Aug-20 07:49 35.289024 -119.893784 69 6989ft 142kts
18-Aug-20 07:50 35.300587 -119.847559 69 7461ft 142kts
18-Aug-20 07:51 35.313145 -119.797310 70 7507ft 162kts
18-Aug-20 07:52 35.326393 -119.744084 70 7506ft 162kts
18-Aug-20 07:54 35.339520 -119.691245 70 7508ft 162kts
18-Aug-20 07:55 35.352691 -119.638135 70 7510ft 163kts
18-Aug-20 07:56 35.365741 -119.585393 69 7512ft 163kts
18-Aug-20 07:57 35.378894 -119.532166 69 7513ft 163kts
18-Aug-20 07:58 35.392031 -119.478871 69 7513ft 163kts
18-Aug-20 07:59 35.405096 -119.425754 69 7512ft 163kts
18-Aug-20 08:00 35.418170 -119.372491 69 7511ft 163kts
18-Aug-20 08:01 35.431425 -119.318399 70 7510ft 163kts
18-Aug-20 08:02 35.444474 -119.264989 70 7510ft 163kts
18-Aug-20 08:03 35.457512 -119.211515 70 7511ft 163kts
18-Aug-20 08:04 35.470538 -119.157993 70 7511ft 163kts
18-Aug-20 08:05 35.483553 -119.104395 70 7512ft 163kts
18-Aug-20 08:06 35.498525 -119.051872 67 7514ft 163kts
18-Aug-20 08:06 35.511253 -119.008036 67 7515ft 163kts
18-Aug-20 08:08 35.529004 -118.946844 67 7514ft 163kts
18-Aug-20 08:09 35.544221 -118.894288 67 7514ft 163kts
18-Aug-20 08:09 35.556840 -118.850619 67 7514ft 163kts
18-Aug-20 08:11 35.574538 -118.789265 67 7517ft 163kts
18-Aug-20 08:12 35.589594 -118.736964 67 7547ft 162kts
18-Aug-20 08:12 35.602079 -118.693516 67 7565ft 162kts
18-Aug-20 08:13 35.617022 -118.641400 68 7578ft 162kts
18-Aug-20 08:14 35.632113 -118.588780 68 7580ft 163kts
18-Aug-20 08:15 35.647182 -118.535936 68 7583ft 163kts
18-Aug-20 08:17 35.664638 -118.474736 66 7613ft 162kts
18-Aug-20 08:17 35.677174 -118.430720 67 7856ft 161kts
18-Aug-20 08:18 35.691828 -118.379114 66 8264ft 159kts
18-Aug-20 08:19 35.706151 -118.328606 66 8764ft 155kts
18-Aug-20 08:20 35.720198 -118.279102 67 9350ft 152kts
18-Aug-20 08:21 35.733677 -118.231476 68 9876ft 151kts
18-Aug-20 08:22 35.747530 -118.182372 69 10235ft 157kts
18-Aug-20 08:23 35.762962 -118.127440 68 9640ft 183kts
18-Aug-20 08:24 35.779056 -118.070149 67 9592ft 171kts
18-Aug-20 08:25 35.794383 -118.015527 67 9592ft 166kts
18-Aug-20 08:26 35.809384 -117.961944 67 9592ft 164kts
18-Aug-20 08:27 35.824235 -117.908769 67 9592ft 164kts
18-Aug-20 08:28 35.839029 -117.855718 67 9592ft 163kts
18-Aug-20 08:29 35.853777 -117.802755 68 9592ft 163kts
18-Aug-20 08:30 35.868542 -117.749559 68 9592ft 163kts
18-Aug-20 08:31 35.883268 -117.696423 68 9592ft 163kts
18-Aug-20 08:32 35.897977 -117.643249 68 9592ft 164kts
18-Aug-20 08:33 35.912669 -117.590058 68 9592ft 164kts
18-Aug-20 08:34 35.927363 -117.536700 68 9592ft 164kts
18-Aug-20 08:35 35.942064 -117.483289 68 9592ft 164kts
18-Aug-20 08:36 35.956745 -117.429751 68 9592ft 164kts
18-Aug-20 08:37 35.971409 -117.376208 68 9592ft 164kts
18-Aug-20 08:38 35.986095 -117.322482 69 9593ft 165kts
18-Aug-20 08:39 35.996981 -117.268077 108 9594ft 169kts
18-Aug-20 08:40 35.979122 -117.214327 110 9593ft 170kts
18-Aug-20 08:41 35.961299 -117.160088 110 9593ft 170kts
18-Aug-20 08:42 35.943738 -117.105909 109 9590ft 170kts
18-Aug-20 08:43 35.949882 -117.050719 65 9567ft 167kts
18-Aug-20 08:44 35.967524 -116.997573 67 9545ft 168kts
18-Aug-20 08:45 35.984405 -116.943606 67 9522ft 168kts
18-Aug-20 08:46 36.001128 -116.889591 68 9500ft 168kts
18-Aug-20 08:47 36.017770 -116.835578 68 9492ft 168kts
18-Aug-20 08:48 36.034395 -116.781544 68 9492ft 168kts
18-Aug-20 08:49 36.051001 -116.727469 68 9492ft 168kts
18-Aug-20 08:50 36.067535 -116.673547 68 9492ft 168kts
18-Aug-20 08:51 36.084085 -116.619431 68 9496ft 168kts
18-Aug-20 08:52 36.100712 -116.565007 68 9518ft 168kts
18-Aug-20 08:53 36.117184 -116.510929 68 9545ft 168kts
18-Aug-20 08:54 36.133802 -116.456324 68 9517ft 170kts
18-Aug-20 08:55 36.150336 -116.401878 68 9558ft 168kts
18-Aug-20 08:56 36.166834 -116.347424 69 9575ft 169kts
18-Aug-20 08:57 36.183361 -116.292773 69 9575ft 169kts
18-Aug-20 08:58 36.199893 -116.238011 69 9575ft 170kts
18-Aug-20 08:59 36.216476 -116.182970 69 9575ft 170kts
18-Aug-20 09:00 36.232977 -116.128128 69 9575ft 170kts
18-Aug-20 09:01 36.249528 -116.072952 69 9575ft 170kts
18-Aug-20 09:02 36.266059 -116.017760 69 9575ft 171kts
18-Aug-20 09:03 36.282564 -115.962554 69 9575ft 171kts
18-Aug-20 09:04 36.307612 -115.914870 40 9576ft 170kts
18-Aug-20 09:05 36.343359 -115.876238 40 9575ft 171kts
18-Aug-20 09:06 36.377920 -115.835697 44 9575ft 171kts
18-Aug-20 09:07 36.411625 -115.793843 44 9575ft 171kts
18-Aug-20 09:08 36.445240 -115.752023 44 9575ft 171kts
18-Aug-20 09:09 36.478918 -115.710094 44 9575ft 171kts
18-Aug-20 09:10 36.512858 -115.667807 44 9530ft 172kts
18-Aug-20 09:11 36.537099 -115.618986 78 9540ft 171kts
18-Aug-20 09:12 36.546969 -115.561168 77 9543ft 171kts
18-Aug-20 09:13 36.557290 -115.503372 77 9546ft 171kts
18-Aug-20 09:14 36.567636 -115.445674 77 9550ft 171kts
18-Aug-20 09:15 36.577963 -115.387961 77 9554ft 171kts
18-Aug-20 09:16 36.588316 -115.329969 77 9557ft 171kts
18-Aug-20 09:17 36.566419 -115.290723 164 9552ft 169kts
18-Aug-20 09:18 36.530957 -115.259102 85 9534ft 170kts
18-Aug-20 09:19 36.543300 -115.202473 70 9550ft 171kts
18-Aug-20 09:20 36.558109 -115.146067 72 9557ft 171kts
18-Aug-20 09:21 36.572316 -115.089414 72 9565ft 171kts
18-Aug-20 09:22 36.586442 -115.032576 72 9573ft 172kts
18-Aug-20 09:23 36.600769 -114.974742 72 9495ft 175kts
18-Aug-20 09:24 36.615038 -114.916987 72 9493ft 174kts
18-Aug-20 09:25 36.628929 -114.860639 72 9597ft 170kts
18-Aug-20 09:26 36.642868 -114.803965 72 9603ft 172kts
18-Aug-20 09:27 36.657729 -114.747106 72 9606ft 172kts
18-Aug-20 09:28 36.672028 -114.689813 72 9597ft 173kts
18-Aug-20 09:29 36.683277 -114.632127 106 9609ft 171kts
18-Aug-20 09:30 36.668035 -114.575509 110 9557ft 175kts
18-Aug-20 09:31 36.651252 -114.515791 110 8708ft 186kts
18-Aug-20 09:32 36.633690 -114.453240 110 7358ft 201kts
18-Aug-20 09:33 36.615986 -114.390230 110 6423ft 169kts
18-Aug-20 09:34 36.602300 -114.341601 112 6457ft 134kts
18-Aug-20 09:35 36.619933 -114.296991 63 5649ft 166kts
18-Aug-20 09:36 36.642781 -114.245806 62 4911ft 160kts
18-Aug-20 09:37 36.663679 -114.202588 47 4912ft 133kts
18-Aug-20 09:38 36.691308 -114.175833 35 4973ft 115kts
18-Aug-20 09:39 36.716722 -114.154067 36 4577ft 111kts
18-Aug-20 09:40 36.742778 -114.131805 35 3999ft 116kts
18-Aug-20 09:41 36.769710 -114.108804 36 3379ft 109kts
18-Aug-20 09:42 36.792879 -114.088983 36 2807ft 95kts
18-Aug-20 09:43 36.813992 -114.070847 39 2306ft 89kts
18-Aug-20 09:44 36.832233 -114.056602 31 1983ft 41kts
18-Aug-20 09:45 36.835244 -114.055979 253 1983ft 11kts
18-Aug-20 09:46 36.834673 -114.057076 183 1983ft 0kts
18-Aug-20 09:47 36.834673 -114.057076 183 1983ft 0kts

Navigation Log

Ident Type
Flight plan parsing failed, navigation log unavailable